Time;durP1;ratioP1;P1;durP2;ratioP2;P2;SDS_P1;SDS_P2;PMS_P1;PMS_P2;Temp;Humidity;BMP_temperature;BMP_pressure;BME280_temperature;BME280_humidity;BME280_pressure;Samples;Min_cycle;Max_cycle;Signal;HPM_P1;HPM_P2
2022/08/27 00:02:20;;;;;;;13.85;4.57;;;;;;;21.28;88.48;99737.91;5551379;32;35506;-68
2022/08/27 00:05:26;;;;;;;10.18;4.20;;;;;;;21.20;89.43;99738.34;5551850;32;34605;-67
2022/08/27 00:08:31;;;;;;;12.73;4.43;;;;;;;21.28;90.15;99729.00;5551448;32;34582;-67
2022/08/27 00:11:34;;;;;;;13.70;4.12;;;;;;;21.17;89.93;99734.25;5551296;32;34666;-68
2022/08/27 00:14:37;;;;;;;11.48;4.37;;;;;;;21.31;88.87;99737.38;5551746;32;34123;-68
2022/08/27 00:17:42;;;;;;;11.30;4.87;;;;;;;21.18;88.96;99741.28;5551270;32;34159;-68
2022/08/27 00:20:45;;;;;;;20.75;4.35;;;;;;;21.10;89.50;99744.41;5551260;32;34500;-67
2022/08/27 00:23:49;;;;;;;12.57;4.55;;;;;;;21.03;89.64;99743.78;5551267;32;34322;-68
2022/08/27 00:26:52;;;;;;;13.10;4.45;;;;;;;21.00;90.12;99749.69;5551265;32;35585;-68
2022/08/27 00:29:55;;;;;;;16.35;4.22;;;;;;;20.92;89.84;99749.28;5551243;32;35699;-68
2022/08/27 00:32:58;;;;;;;18.73;5.00;;;;;;;20.87;89.61;99747.34;5551105;32;34264;-68
2022/08/27 00:36:02;;;;;;;17.52;4.47;;;;;;;20.83;90.40;99743.53;5551144;32;34188;-68
2022/08/27 00:39:05;;;;;;;15.73;4.30;;;;;;;20.80;90.68;99750.25;5550951;32;34218;-68
2022/08/27 00:42:09;;;;;;;19.10;5.03;;;;;;;20.75;91.25;99752.88;5551184;32;34187;-68
2022/08/27 00:45:14;;;;;;;15.07;4.68;;;;;;;20.73;91.39;99754.16;5537433;32;33472;-67
2022/08/27 00:48:20;;;;;;;10.93;4.47;;;;;;;20.90;90.47;99754.12;5551141;32;34183;-68
2022/08/27 00:51:24;;;;;;;13.32;4.60;;;;;;;20.93;90.42;99762.53;5537306;32;34375;-67
2022/08/27 00:54:27;;;;;;;16.37;4.60;;;;;;;20.91;90.39;99766.56;5550992;32;34242;-68
2022/08/27 00:57:32;;;;;;;16.52;4.80;;;;;;;20.85;91.65;99778.31;5550981;32;34253;-68
2022/08/27 01:00:36;;;;;;;16.52;4.78;;;;;;;20.76;92.47;99772.56;5537430;32;34329;-68
2022/08/27 01:03:40;;;;;;;8.25;4.12;;;;;;;20.71;96.95;99765.22;5550699;32;35346;-68
2022/08/27 01:06:43;;;;;;;13.35;4.55;;;;;;;20.60;95.76;99768.81;5551288;32;35607;-69
2022/08/27 01:09:47;;;;;;;12.00;4.45;;;;;;;20.56;95.18;99772.25;5550850;32;34273;-68
2022/08/27 01:12:53;;;;;;;16.73;4.50;;;;;;;20.61;95.66;99773.16;5550703;32;34540;-69
2022/08/27 01:15:57;;;;;;;15.35;4.70;;;;;;;20.52;97.50;99771.94;5524658;32;33400;-68
2022/08/27 01:19:06;;;;;;;13.15;4.65;;;;;;;20.46;97.41;99777.50;5537022;32;33233;-68
2022/08/27 01:22:29;;;;;;;12.75;4.40;;;;;;;20.48;96.25;99778.09;5550700;32;34156;-68
2022/08/27 01:25:33;;;;;;;17.85;4.40;;;;;;;20.41;96.66;99782.81;5550681;32;34185;-68
2022/08/27 01:28:35;;;;;;;11.30;4.35;;;;;;;20.45;96.90;99778.56;5550809;32;34128;-68
2022/08/27 01:31:39;;;;;;;16.23;4.68;;;;;;;20.47;97.75;99776.44;5550633;32;34906;-68
2022/08/27 01:34:42;;;;;;;23.70;4.62;;;;;;;20.47;98.05;99762.97;5550731;32;34879;-69
2022/08/27 01:37:48;;;;;;;13.48;4.80;;;;;;;20.51;98.58;99781.09;5536916;32;34133;-68
2022/08/27 01:40:53;;;;;;;21.42;5.03;;;;;;;20.47;98.34;99774.56;5550613;32;34172;-69
2022/08/27 01:43:56;;;;;;;11.23;4.40;;;;;;;20.50;98.54;99768.69;5550586;32;34821;-68
2022/08/27 01:46:59;;;;;;;11.10;4.80;;;;;;;20.45;98.32;99778.56;5550441;32;34536;-68
2022/08/27 01:50:11;;;;;;;12.27;4.80;;;;;;;20.49;97.63;99779.69;5550442;32;34849;-68
2022/08/27 01:53:19;;;;;;;19.10;4.60;;;;;;;20.29;99.85;99789.06;5550475;32;35490;-68
2022/08/27 01:56:21;;;;;;;14.00;4.60;;;;;;;20.16;99.88;99785.88;5550504;32;34214;-69
2022/08/27 01:59:24;;;;;;;12.32;4.37;;;;;;;20.10;99.71;99779.59;5550480;32;34560;-67
2022/08/27 02:02:41;;;;;;;15.40;4.07;;;;;;;20.06;99.85;99783.03;5550452;32;34333;-67
2022/08/27 02:05:46;;;;;;;16.02;4.10;;;;;;;20.00;99.34;99792.88;5550522;32;34308;-67
2022/08/27 02:08:49;;;;;;;13.10;4.12;;;;;;;20.04;97.55;99787.84;5550708;32;34320;-67
2022/08/27 02:11:52;;;;;;;12.13;4.10;;;;;;;19.88;98.17;99781.38;5550182;32;34341;-67
2022/08/27 02:14:54;;;;;;;14.63;4.07;;;;;;;19.80;98.53;99787.97;5549144;32;34204;-67
2022/08/27 02:17:57;;;;;;;15.27;4.22;;;;;;;19.75;99.01;99784.38;5550235;32;34202;-67
2022/08/27 02:21:00;;;;;;;14.32;4.45;;;;;;;19.70;99.34;99789.69;5550328;32;34209;-67
2022/08/27 02:24:03;;;;;;;13.45;4.68;;;;;;;19.76;99.14;99786.81;5550207;32;35358;-67
2022/08/27 02:27:06;;;;;;;14.10;4.18;;;;;;;19.83;98.94;99782.09;5550495;32;35314;-67
2022/08/27 02:30:13;;;;;;;14.55;4.93;;;;;;;19.75;99.43;99774.41;5550031;32;34279;-67
2022/08/27 02:33:16;;;;;;;13.60;4.55;;;;;;;19.63;99.00;99776.34;5550454;32;34866;-67
2022/08/27 02:36:19;;;;;;;16.50;4.50;;;;;;;19.58;98.80;99781.63;5550411;32;34281;-67
2022/08/27 02:39:22;;;;;;;11.25;4.75;;;;;;;19.57;98.70;99787.25;5549945;32;34101;-68
2022/08/27 02:42:25;;;;;;;10.10;4.35;;;;;;;19.50;98.48;99777.47;5536367;32;34855;-68
2022/08/27 02:45:27;;;;;;;7.25;3.85;;;;;;;19.50;98.18;99771.28;5536743;32;34853;-68
2022/08/27 02:48:30;;;;;;;10.10;4.10;;;;;;;19.44;98.61;99778.44;5549844;32;34365;-69
2022/08/27 02:51:33;;;;;;;15.00;4.70;;;;;;;19.43;98.72;99771.38;5549783;32;34595;-67
2022/08/27 02:54:35;;;;;;;15.52;4.62;;;;;;;19.43;98.50;99771.38;5535714;32;34224;-68
2022/08/27 02:57:38;;;;;;;10.93;4.22;;;;;;;19.44;98.63;99777.59;5549661;32;34249;-67
2022/08/27 03:00:44;;;;;;;11.57;4.35;;;;;;;19.40;98.60;99774.56;5549607;32;34298;-68
2022/08/27 03:03:46;;;;;;;10.80;4.18;;;;;;;19.37;98.96;99777.72;5549955;32;34161;-67
2022/08/27 03:06:49;;;;;;;13.40;4.72;;;;;;;19.43;98.97;99779.44;5549494;32;35445;-68
2022/08/27 03:09:52;;;;;;;15.38;4.22;;;;;;;19.50;98.09;99779.34;5549478;32;35457;-67
2022/08/27 03:12:56;;;;;;;9.80;4.35;;;;;;;19.46;98.38;99773.59;5549323;32;34235;-68
2022/08/27 03:15:58;;;;;;;9.48;4.20;;;;;;;19.49;98.45;99783.09;5535687;32;32772;-68
2022/08/27 03:19:01;;;;;;;12.80;4.22;;;;;;;19.69;97.07;99775.41;5535740;32;34952;-68
2022/08/27 03:22:04;;;;;;;10.02;4.18;;;;;;;19.83;96.47;99782.09;5549308;32;34253;-69
2022/08/27 03:25:08;;;;;;;10.45;4.78;;;;;;;19.87;96.24;99783.25;5549956;32;34103;-67
2022/08/27 03:28:13;;;;;;;15.57;4.62;;;;;;;19.81;97.16;99778.84;5551645;32;34155;-69
2022/08/27 03:31:26;;;;;;;16.92;4.65;;;;;;;19.71;97.63;99780.50;5551702;32;34446;-68
2022/08/27 03:34:28;;;;;;;11.12;4.62;;;;;;;19.67;97.88;99782.88;5551632;32;34187;-69
2022/08/27 03:37:31;;;;;;;11.65;5.05;;;;;;;19.66;97.49;99783.12;5551480;32;34163;-69
2022/08/27 03:40:34;;;;;;;12.65;4.30;;;;;;;19.50;98.74;99782.03;5551803;32;34935;-68
2022/08/27 03:43:37;;;;;;;16.05;4.35;;;;;;;19.39;99.52;99782.84;5551711;32;34681;-68
2022/08/27 03:46:39;;;;;;;16.25;4.62;;;;;;;19.35;99.43;99782.53;5551616;32;35465;-68
2022/08/27 03:49:43;;;;;;;11.48;4.80;;;;;;;19.38;98.73;99773.97;5538078;32;34168;-68
2022/08/27 03:52:45;;;;;;;14.23;4.60;;;;;;;19.47;98.50;99782.50;5551331;32;34889;-67
2022/08/27 03:55:48;;;;;;;12.52;4.30;;;;;;;19.29;99.57;99775.41;5551481;32;34329;-67
2022/08/27 03:58:51;;;;;;;10.50;4.10;;;;;;;19.24;99.67;99774.50;5551386;32;34483;-67
2022/08/27 04:01:55;;;;;;;11.98;4.30;;;;;;;19.22;99.83;99776.62;5538014;32;33750;-67
2022/08/27 04:04:58;;;;;;;9.70;4.07;;;;;;;19.09;100.00;99783.88;5551496;32;34289;-68
2022/08/27 04:08:00;;;;;;;12.10;4.70;;;;;;;19.05;99.07;99785.41;5551390;32;34139;-68
2022/08/27 04:11:06;;;;;;;12.63;4.37;;;;;;;19.02;98.38;99793.16;5551269;32;34289;-68
2022/08/27 04:14:09;;;;;;;11.00;4.07;;;;;;;19.00;98.12;99789.88;5551252;32;34726;-68
2022/08/27 04:17:28;;;;;;;13.07;4.28;;;;;;;19.02;97.86;99787.78;5551284;32;35483;-68
2022/08/27 04:20:31;;;;;;;9.80;4.20;;;;;;;19.01;97.73;99794.19;5551218;32;34911;-68
2022/08/27 04:23:39;;;;;;;8.77;4.22;;;;;;;19.05;97.31;99784.59;5551184;32;34183;-68
2022/08/27 04:26:44;;;;;;;11.55;4.20;;;;;;;19.02;97.88;99785.91;5551263;32;34857;-68
2022/08/27 04:29:47;;;;;;;9.27;4.35;;;;;;;19.05;97.77;99798.03;5551314;32;34931;-68
2022/08/27 04:32:52;;;;;;;13.15;4.20;;;;;;;19.14;96.61;99793.09;5551485;32;34269;-68
2022/08/27 04:36:01;;;;;;;12.63;3.85;;;;;;;19.12;96.49;99786.09;5551005;32;35492;-68
2022/08/27 04:39:03;;;;;;;12.40;4.18;;;;;;;19.32;94.59;99790.25;5550772;32;34107;-69
2022/08/27 04:42:07;;;;;;;7.78;4.22;;;;;;;19.36;94.98;99792.25;5537555;32;35427;-68
2022/08/27 04:45:09;;;;;;;10.43;4.37;;;;;;;19.36;95.21;99788.72;5551188;32;34249;-68
2022/08/27 04:48:15;;;;;;;14.48;4.68;;;;;;;19.39;94.75;99790.94;5550928;32;34260;-68
2022/08/27 04:51:19;;;;;;;8.95;4.00;;;;;;;19.45;94.74;99787.31;5551008;32;34933;-68
2022/08/27 04:54:24;;;;;;;10.20;4.32;;;;;;;19.50;93.80;99787.41;5550911;32;34120;-68
2022/08/27 04:57:36;;;;;;;11.20;4.28;;;;;;;19.58;93.18;99787.03;5550866;32;35127;-68
2022/08/27 05:00:45;;;;;;;18.08;4.57;;;;;;;19.65;92.86;99803.84;5551029;32;34234;-68
2022/08/27 05:03:47;;;;;;;9.95;4.53;;;;;;;19.82;92.73;99793.09;5537183;32;32803;-68
2022/08/27 05:06:50;;;;;;;10.95;4.55;;;;;;;19.92;91.47;99794.13;5550878;32;35453;-68
2022/08/27 05:09:56;;;;;;;12.32;4.18;;;;;;;19.96;91.60;99797.13;5550737;32;35586;-68
2022/08/27 05:12:58;;;;;;;13.93;4.03;;;;;;;20.09;90.81;99796.00;5550769;32;34773;-68
2022/08/27 05:16:04;;;;;;;9.68;4.55;;;;;;;20.26;89.50;99794.13;5550579;32;34243;-68
2022/08/27 05:19:09;;;;;;;14.48;4.47;;;;;;;20.43;88.54;99794.97;5550764;32;34325;-69
2022/08/27 05:22:12;;;;;;;12.23;4.32;;;;;;;20.35;88.27;99806.97;5536965;32;34948;-69
2022/08/27 05:25:15;;;;;;;6.87;3.90;;;;;;;20.51;89.19;99807.22;5550154;32;34835;-68
2022/08/27 05:28:20;;;;;;;14.32;4.00;;;;;;;20.59;86.97;99806.78;5550655;32;34850;-68
2022/08/27 05:31:29;;;;;;;19.45;4.40;;;;;;;20.63;87.25;99799.84;5550488;32;34343;-69
2022/08/27 05:34:32;;;;;;;14.30;4.12;;;;;;;20.68;87.62;99808.81;5550549;32;35442;-69
2022/08/27 05:37:38;;;;;;;9.80;3.90;;;;;;;20.70;88.08;99816.66;5550416;32;34149;-68
2022/08/27 05:40:41;;;;;;;10.52;4.20;;;;;;;20.81;87.91;99813.06;5550350;32;34183;-69
2022/08/27 05:43:44;;;;;;;11.07;4.10;;;;;;;20.78;88.42;99803.56;5550667;32;34117;-68
2022/08/27 05:46:51;;;;;;;12.02;3.75;;;;;;;20.88;88.14;99799.38;5550854;32;34117;-68
2022/08/27 05:49:54;;;;;;;13.13;4.05;;;;;;;21.05;87.42;99800.19;5550169;32;34126;-68
2022/08/27 05:52:57;;;;;;;12.90;3.72;;;;;;;21.13;85.54;99797.03;5550525;32;34193;-69
2022/08/27 05:55:59;;;;;;;10.88;3.53;;;;;;;21.38;83.93;99797.38;5550502;32;34806;-69
2022/08/27 06:02:27;;;;;;;8.95;3.80;;;;;;;21.47;79.14;99795.84;5550716;32;34911;-69
2022/08/27 06:05:30;;;;;;;10.02;4.12;;;;;;;21.69;78.67;99806.59;5550591;32;34555;-69
2022/08/27 06:08:32;;;;;;;12.77;3.50;;;;;;;21.83;77.89;99805.16;5550336;32;34523;-68
2022/08/27 06:11:36;;;;;;;9.77;3.53;;;;;;;21.87;75.34;99798.19;5550194;32;34938;-69
2022/08/27 06:14:39;;;;;;;11.05;3.72;;;;;;;21.97;74.15;99801.00;5550178;32;34801;-69
2022/08/27 06:17:41;;;;;;;10.02;3.40;;;;;;;22.07;73.79;99809.16;5550134;32;34202;-69
2022/08/27 06:20:44;;;;;;;8.43;3.20;;;;;;;22.28;72.78;99806.66;5536478;32;32779;-69
2022/08/27 06:23:47;;;;;;;8.70;3.65;;;;;;;22.34;72.05;99811.03;5536461;32;34230;-69
2022/08/27 06:26:49;;;;;;;8.40;3.25;;;;;;;22.37;72.43;99811.31;5550050;32;34254;-69
2022/08/27 06:29:52;;;;;;;9.27;3.45;;;;;;;22.67;70.52;99812.63;5549763;32;34898;-69
2022/08/27 06:32:55;;;;;;;12.52;3.33;;;;;;;22.93;69.39;99815.25;5549974;32;34214;-68
2022/08/27 06:36:02;;;;;;;11.12;3.30;;;;;;;23.22;68.88;99823.78;5550036;32;34146;-69
2022/08/27 06:39:07;;;;;;;12.57;3.50;;;;;;;23.64;65.69;99823.69;5536341;32;32740;-68
2022/08/27 06:42:12;;;;;;;16.87;3.72;;;;;;;23.93;64.00;99832.16;5549726;32;34680;-68
2022/08/27 06:45:17;;;;;;;8.95;3.87;;;;;;;24.05;61.55;99840.03;5549883;32;34283;-68
2022/08/27 06:48:20;;;;;;;8.23;3.22;;;;;;;24.11;62.05;99842.47;5550081;32;34157;-69
2022/08/27 06:51:28;;;;;;;14.27;3.60;;;;;;;24.23;61.22;99834.94;5549792;32;34247;-69
2022/08/27 06:54:31;;;;;;;13.73;3.53;;;;;;;24.30;60.46;99836.56;5549519;32;34890;-69
2022/08/27 06:57:35;;;;;;;7.28;2.80;;;;;;;24.56;59.62;99836.28;5535653;32;32895;-69
2022/08/27 07:00:39;;;;;;;13.65;3.45;;;;;;;25.16;58.28;99837.28;5552972;32;34963;-69
2022/08/27 07:03:42;;;;;;;12.60;3.12;;;;;;;25.43;56.89;99845.03;5556063;32;35629;-68
2022/08/27 07:06:45;;;;;;;9.20;3.40;;;;;;;25.74;55.51;99834.88;5542182;32;32987;-69
2022/08/27 07:09:47;;;;;;;14.93;3.17;;;;;;;26.36;53.64;99843.16;5556081;32;35475;-68
2022/08/27 07:12:50;;;;;;;9.57;2.90;;;;;;;27.79;50.59;99845.97;5542008;32;32776;-69
2022/08/27 07:15:53;;;;;;;13.35;3.25;;;;;;;27.53;49.34;99840.09;5541246;32;33901;-69
2022/08/27 07:18:59;;;;;;;17.65;3.10;;;;;;;27.47;49.60;99852.12;5555632;32;34986;-69
2022/08/27 07:22:05;;;;;;;9.60;3.08;;;;;;;26.88;49.04;99855.22;5555597;32;34658;-69
2022/08/27 07:25:11;;;;;;;16.87;2.95;;;;;;;26.76;50.44;99850.16;5555627;32;34411;-69
2022/08/27 07:28:14;;;;;;;10.18;3.10;;;;;;;27.85;47.45;99865.81;5555654;32;34234;-69
2022/08/27 07:31:20;;;;;;;8.95;2.75;;;;;;;28.99;42.82;99859.94;5541640;32;32695;-70
2022/08/27 07:34:22;;;;;;;11.82;2.60;;;;;;;28.65;42.55;99869.25;5541752;32;33935;-69
2022/08/27 07:37:25;;;;;;;9.75;3.08;;;;;;;28.58;43.02;99868.81;5555227;32;34344;-70
2022/08/27 07:40:37;;;;;;;8.57;2.65;;;;;;;27.82;44.45;99869.94;5555352;32;35546;-69
2022/08/27 07:47:06;;;;;;;10.50;2.95;;;;;;;28.90;43.12;99868.81;5555176;32;34803;-69
2022/08/27 07:50:09;;;;;;;12.52;2.97;;;;;;;29.56;43.16;99862.09;5555144;32;34816;-69
2022/08/27 07:53:12;;;;;;;9.80;2.45;;;;;;;29.27;42.64;99867.03;5541379;32;32557;-68
2022/08/27 07:56:15;;;;;;;9.73;2.95;;;;;;;30.99;38.86;99866.59;5554903;32;34871;-69
2022/08/27 07:59:18;;;;;;;6.20;2.80;;;;;;;31.72;38.12;99867.06;5554977;32;34332;-69
2022/08/27 08:02:26;;;;;;;21.35;2.75;;;;;;;31.90;37.44;99857.75;5554601;32;34193;-69
2022/08/27 08:05:42;;;;;;;8.65;2.97;;;;;;;32.63;34.63;99864.19;5554689;32;34341;-70
2022/08/27 08:08:45;;;;;;;11.98;2.50;;;;;;;32.63;34.92;99859.50;5540762;32;33017;-69
2022/08/27 08:11:50;;;;;;;4.93;2.40;;;;;;;32.50;35.00;99860.47;5552348;32;34237;-69
2022/08/27 08:14:56;;;;;;;7.72;2.40;;;;;;;33.54;33.02;99855.44;5550850;32;34135;-69
2022/08/27 08:18:00;;;;;;;8.85;3.20;;;;;;;34.48;31.49;99863.00;5550961;32;34236;-70
2022/08/27 08:21:10;;;;;;;9.45;2.70;;;;;;;34.07;31.43;99860.28;5551009;32;34307;-70
2022/08/27 08:24:13;;;;;;;12.27;2.80;;;;;;;34.98;29.86;99869.47;5537336;32;32940;-70
2022/08/27 08:27:19;;;;;;;7.45;3.28;;;;;;;32.56;33.28;99864.66;5550502;32;34541;-70
2022/08/27 08:30:23;;;;;;;7.80;3.03;;;;;;;32.57;33.23;99865.47;5551016;32;34284;-70
2022/08/27 08:33:26;;;;;;;8.27;2.80;;;;;;;32.34;33.30;99867.59;5550837;32;34552;-70
2022/08/27 08:36:29;;;;;;;10.18;2.80;;;;;;;32.68;33.60;99864.00;5523996;32;34216;-70
2022/08/27 08:39:32;;;;;;;11.02;2.60;;;;;;;33.81;30.78;99871.47;5550756;32;35423;-69
2022/08/27 08:42:51;;;;;;;9.00;2.47;;;;;;;33.66;30.82;99866.53;5536622;32;33862;-69
2022/08/27 08:45:59;;;;;;;9.50;2.50;;;;;;;33.41;31.69;99865.53;5550755;32;34124;-70
2022/08/27 08:49:19;;;;;;;13.52;3.37;;;;;;;35.45;28.00;99865.13;5550826;32;34205;-70
2022/08/27 08:52:51;;;;;;;9.45;2.40;;;;;;;36.74;26.44;99871.37;5523248;32;32972;-70
2022/08/27 08:56:00;;;;;;;9.98;3.17;;;;;;;35.96;26.90;99868.31;5536840;32;32735;-70
2022/08/27 08:59:24;;;;;;;12.35;2.87;;;;;;;36.34;26.33;99863.16;5523008;32;32715;-70
2022/08/27 09:02:27;;;;;;;4.80;2.28;;;;;;;37.17;25.79;99870.53;5536963;32;33554;-70
2022/08/27 09:05:36;;;;;;;10.25;2.50;;;;;;;37.99;24.32;99864.97;5550315;32;34571;-69
2022/08/27 09:08:47;;;;;;;13.13;2.80;;;;;;;38.46;24.26;99863.94;5550601;32;34661;-69
2022/08/27 09:12:02;;;;;;;5.35;2.28;;;;;;;35.69;27.58;99858.81;5550355;32;35462;-70
2022/08/27 09:15:14;;;;;;;10.23;2.92;;;;;;;36.83;25.20;99854.63;5550562;32;34493;-70
2022/08/27 09:18:17;;;;;;;7.32;2.58;;;;;;;37.52;25.22;99861.47;5536709;32;33859;-70
2022/08/27 09:22:01;;;;;;;6.82;2.53;;;;;;;38.90;22.43;99854.09;5550518;32;34321;-71
2022/08/27 09:25:30;;;;;;;7.68;2.67;;;;;;;38.93;22.68;99842.25;5550121;32;34298;-70
2022/08/27 09:32:09;;;;;;;8.20;2.70;;;;;;;36.46;25.54;99837.41;5550428;32;34263;-70
2022/08/27 09:35:14;;;;;;;9.77;2.55;;;;;;;35.12;29.11;99828.56;5536273;32;34944;-69
2022/08/27 09:38:27;;;;;;;11.20;2.83;;;;;;;35.98;25.72;99833.66;5550260;32;34816;-70
2022/08/27 09:41:41;;;;;;;12.77;2.30;;;;;;;36.03;24.95;99830.66;5537510;32;34776;-69
2022/08/27 09:44:46;;;;;;;7.10;2.35;;;;;;;36.24;25.05;99830.50;5550160;32;34206;-69
2022/08/27 09:48:08;;;;;;;9.50;2.30;;;;;;;38.78;22.28;99826.50;5512495;32;32789;-70
2022/08/27 09:51:27;;;;;;;10.27;2.30;;;;;;;40.18;21.00;99829.06;5550396;32;34184;-70
2022/08/27 09:54:45;;;;;;;5.00;2.47;;;;;;;37.40;22.42;99829.97;5550429;32;35459;-70
2022/08/27 09:57:51;;;;;;;7.32;2.22;;;;;;;37.29;23.42;99820.63;5550679;32;34279;-69
2022/08/27 10:01:17;;;;;;;6.00;2.30;;;;;;;35.38;23.88;99820.00;5536785;32;34588;-70
2022/08/27 10:04:32;;;;;;;6.20;2.47;;;;;;;33.25;27.11;99825.22;5536258;32;32802;-69
2022/08/27 10:07:59;;;;;;;4.53;1.83;;;;;;;32.28;29.61;99816.75;5550214;32;34952;-70
2022/08/27 10:11:13;;;;;;;6.68;2.20;;;;;;;31.95;29.68;99819.16;5550235;32;34439;-70
2022/08/27 10:14:28;;;;;;;9.05;2.30;;;;;;;32.31;27.73;99814.16;5537379;32;34927;-70
2022/08/27 10:17:56;;;;;;;7.62;2.30;;;;;;;31.72;29.75;99804.78;5536473;32;34855;-69
2022/08/27 10:21:02;;;;;;;10.73;2.58;;;;;;;31.68;29.08;99806.56;5550376;32;34285;-69
2022/08/27 10:24:43;;;;;;;13.07;2.53;;;;;;;31.70;29.74;99807.06;5550204;32;34235;-68
2022/08/27 10:27:57;;;;;;;6.75;2.45;;;;;;;31.60;30.03;99814.78;5506145;32;32804;-68
2022/08/27 10:31:12;;;;;;;7.55;2.58;;;;;;;31.77;29.24;99809.31;5550184;32;35005;-70
2022/08/27 10:34:36;;;;;;;6.87;1.92;;;;;;;32.08;28.41;99817.37;5535135;32;34372;-68
2022/08/27 10:38:07;;;;;;;12.93;2.08;;;;;;;32.10;27.18;99820.59;5536713;32;34168;-69
2022/08/27 10:41:21;;;;;;;9.38;2.37;;;;;;;32.37;26.75;99812.03;5550011;32;34245;-69
2022/08/27 10:44:44;;;;;;;6.30;2.08;;;;;;;34.35;24.55;99811.78;5549958;32;34274;-69
2022/08/27 10:48:11;;;;;;;11.90;2.40;;;;;;;36.75;22.78;99817.66;5550241;32;34405;-69
2022/08/27 10:51:29;;;;;;;5.28;2.35;;;;;;;38.19;21.27;99813.94;5536239;32;33360;-69
2022/08/27 10:54:55;;;;;;;11.48;2.40;;;;;;;41.20;18.03;99820.13;5524535;32;34830;-69
2022/08/27 10:58:27;;;;;;;9.43;2.42;;;;;;;40.97;17.21;99811.97;5538850;32;34326;-69
2022/08/27 11:02:12;;;;;;;7.12;1.92;;;;;;;42.73;15.18;99816.03;5549594;32;34329;-69
2022/08/27 11:05:31;;;;;;;9.05;1.90;;;;;;;43.13;15.26;99810.09;5549557;32;34116;-69
2022/08/27 11:08:50;;;;;;;8.38;1.83;;;;;;;44.02;14.85;99805.06;5549364;32;34709;-69
2022/08/27 11:11:59;;;;;;;12.48;2.30;;;;;;;42.27;16.37;99797.22;5548854;32;34280;-69
2022/08/27 11:15:30;;;;;;;7.37;1.85;;;;;;;43.49;15.32;99805.25;5549244;32;34853;-70
2022/08/27 11:18:58;;;;;;;6.95;1.92;;;;;;;44.33;14.75;99803.31;5535697;32;32498;-70
2022/08/27 11:22:02;;;;;;;6.60;1.75;;;;;;;44.75;14.28;99801.44;5549271;32;34158;-70
2022/08/27 11:25:33;;;;;;;13.07;2.62;;;;;;;43.30;15.13;99794.50;5549192;32;34276;-70
2022/08/27 11:28:57;;;;;;;8.18;2.10;;;;;;;43.25;14.81;99792.91;5514603;32;34413;-70
2022/08/27 11:32:10;;;;;;;5.78;1.90;;;;;;;43.67;15.24;99792.00;5549142;32;34561;-70
2022/08/27 11:35:21;;;;;;;5.60;2.05;;;;;;;44.78;14.09;99789.44;5548823;32;34165;-70
2022/08/27 11:38:37;;;;;;;9.27;2.10;;;;;;;45.98;13.22;99793.78;5535876;32;34894;-71
2022/08/27 11:41:49;;;;;;;8.90;1.95;;;;;;;48.96;11.46;99797.25;5535392;32;32735;-70
2022/08/27 11:44:58;;;;;;;7.57;2.10;;;;;;;46.74;12.49;99783.03;5548862;32;35664;-70
2022/08/27 11:48:21;;;;;;;8.90;2.20;;;;;;;46.68;13.06;99777.91;5537437;32;32327;-69
2022/08/27 11:51:37;;;;;;;4.07;1.90;;;;;;;48.36;11.68;99781.88;5551518;32;34915;-69
2022/08/27 11:54:50;;;;;;;12.45;2.50;;;;;;;46.02;12.84;99774.88;5551817;32;34497;-70
2022/08/27 11:58:23;;;;;;;9.95;2.50;;;;;;;46.16;14.02;99769.09;5537881;32;35588;-70
2022/08/27 12:01:30;;;;;;;6.53;2.00;;;;;;;48.91;12.53;99763.97;5551316;32;35426;-70
2022/08/27 12:04:37;;;;;;;7.95;2.10;;;;;;;51.29;10.24;99772.31;5551604;32;34677;-70
2022/08/27 12:07:47;;;;;;;11.82;2.67;;;;;;;50.82;10.66;99765.94;5551331;32;34138;-70
2022/08/27 12:11:11;;;;;;;9.73;2.58;;;;;;;49.03;11.98;99754.03;5551340;32;34342;-70
2022/08/27 12:14:33;;;;;;;11.15;2.47;;;;;;;49.05;12.54;99749.53;5551333;32;34270;-69
2022/08/27 12:17:53;;;;;;;9.93;2.12;;;;;;;44.45;14.57;99737.69;5551675;32;34174;-70
2022/08/27 12:21:02;;;;;;;10.57;2.47;;;;;;;45.34;13.98;99744.06;5551369;32;34102;-70
2022/08/27 12:24:29;;;;;;;12.65;2.20;;;;;;;44.20;14.52;99723.88;5551241;32;35497;-70
2022/08/27 12:27:35;;;;;;;6.65;2.10;;;;;;;45.61;14.00;99721.75;5537292;32;33540;-70
2022/08/27 12:30:48;;;;;;;5.37;2.17;;;;;;;47.77;12.93;99728.53;5537765;32;34824;-70
2022/08/27 12:33:53;;;;;;;5.65;2.30;;;;;;;48.25;11.97;99725.81;5537627;32;34885;-70
2022/08/27 12:36:56;;;;;;;8.80;2.15;;;;;;;47.42;12.71;99725.22;5537770;32;34162;-70
2022/08/27 12:40:10;;;;;;;10.20;2.83;;;;;;;50.02;11.37;99728.59;5537283;32;33973;-70
2022/08/27 12:43:28;;;;;;;6.22;2.20;;;;;;;49.15;12.35;99725.91;5525322;32;34883;-70
2022/08/27 12:46:48;;;;;;;11.20;2.60;;;;;;;47.86;11.83;99712.63;5548245;32;35299;-70
2022/08/27 12:49:58;;;;;;;8.15;2.28;;;;;;;48.75;11.42;99700.06;5537298;32;34160;-69
2022/08/27 12:53:35;;;;;;;6.25;2.20;;;;;;;48.35;11.96;99707.09;5551175;32;34344;-70
2022/08/27 12:57:42;;;;;;;9.18;2.22;;;;;;;49.16;11.79;99704.97;5551139;32;34148;-70
2022/08/27 13:01:19;;;;;;;10.98;2.37;;;;;;;49.11;11.61;99693.44;5550979;32;34342;-70
2022/08/27 13:04:47;;;;;;;9.65;2.42;;;;;;;49.40;11.19;99691.41;5551289;32;34462;-70
2022/08/27 13:07:52;;;;;;;7.90;2.58;;;;;;;47.06;12.73;99688.59;5537360;32;34270;-70
2022/08/27 13:11:05;;;;;;;15.07;2.72;;;;;;;46.86;12.86;99684.97;5537160;32;33655;-69
2022/08/27 13:14:19;;;;;;;9.20;2.55;;;;;;;48.85;12.21;99680.50;5550797;32;34976;-69
2022/08/27 13:17:30;;;;;;;7.30;2.37;;;;;;;48.54;11.78;99677.25;5550673;32;34794;-69
2022/08/27 13:20:50;;;;;;;19.10;2.60;;;;;;;50.73;10.41;99684.72;5550703;32;35014;-70
2022/08/27 13:23:59;;;;;;;7.68;2.17;;;;;;;51.52;9.66;99691.91;5550699;32;35608;-69
2022/08/27 13:27:06;;;;;;;7.07;2.40;;;;;;;50.77;10.00;99685.41;5550692;32;34209;-70
2022/08/27 13:30:13;;;;;;;8.52;2.22;;;;;;;51.05;9.57;99691.25;5537221;32;34810;-71
2022/08/27 13:33:38;;;;;;;5.18;2.20;;;;;;;50.11;10.29;99685.62;5536850;32;33409;-70
2022/08/27 13:37:26;;;;;;;7.12;2.50;;;;;;;50.54;9.82;99682.97;5536823;32;34208;-68
2022/08/27 13:40:35;;;;;;;9.98;2.78;;;;;;;47.75;11.63;99689.59;5530677;32;34046;-70
2022/08/27 13:43:43;;;;;;;7.68;2.50;;;;;;;47.74;12.19;99684.41;5550471;32;34242;-70
2022/08/27 13:46:57;;;;;;;9.40;2.30;;;;;;;47.18;13.20;99675.91;5524208;32;34135;-70
2022/08/27 13:50:16;;;;;;;11.68;2.28;;;;;;;45.27;13.61;99678.94;5550374;32;35493;-70
2022/08/27 13:56:51;;;;;;;8.57;2.05;;;;;;;46.16;13.35;99684.94;5550169;32;34309;-70
2022/08/27 14:00:31;;;;;;;5.97;2.47;;;;;;;49.07;11.55;99681.50;5549823;32;34585;-69
2022/08/27 14:03:44;;;;;;;9.50;2.42;;;;;;;50.68;10.46;99681.69;5550635;32;34729;-69
2022/08/27 14:06:48;;;;;;;6.57;2.42;;;;;;;50.55;9.92;99678.12;5536864;32;33313;-70
2022/08/27 14:10:02;;;;;;;7.85;2.20;;;;;;;50.01;10.67;99684.72;5536589;32;33025;-70
2022/08/27 14:13:14;;;;;;;14.00;2.58;;;;;;;47.90;11.78;99678.81;5550176;32;34348;-70
2022/08/27 14:16:20;;;;;;;6.05;2.28;;;;;;;44.85;13.75;99666.97;5550120;32;34810;-69
2022/08/27 14:19:30;;;;;;;8.48;2.53;;;;;;;42.87;16.02;99665.34;5549896;32;34901;-69
2022/08/27 14:22:38;;;;;;;7.07;2.05;;;;;;;41.47;17.61;99664.78;5549912;32;34238;-69
2022/08/27 14:25:42;;;;;;;12.00;2.37;;;;;;;38.94;20.20;99660.78;5536467;32;34244;-69
2022/08/27 14:28:49;;;;;;;8.30;2.53;;;;;;;38.18;20.97;99654.41;5536920;32;34181;-69
2022/08/27 14:31:54;;;;;;;9.27;2.30;;;;;;;39.66;19.45;99660.53;5549620;32;34312;-69
2022/08/27 14:35:00;;;;;;;9.50;2.55;;;;;;;38.14;21.23;99649.97;5549767;32;34376;-70
2022/08/27 14:38:13;;;;;;;11.07;2.47;;;;;;;36.81;23.94;99653.16;5549832;32;34195;-69
2022/08/27 14:41:20;;;;;;;10.30;3.10;;;;;;;36.04;24.24;99654.75;5523771;32;33429;-69
2022/08/27 14:44:24;;;;;;;22.17;3.05;;;;;;;35.45;23.17;99646.38;5549544;32;35453;-70
2022/08/27 14:47:28;;;;;;;11.40;2.60;;;;;;;35.23;25.03;99650.50;5536135;32;34234;-69
2022/08/27 14:50:36;;;;;;;8.43;2.97;;;;;;;34.94;25.14;99645.25;5549517;32;34928;-69
2022/08/27 14:53:39;;;;;;;11.68;2.72;;;;;;;34.71;24.42;99642.97;5535948;32;34370;-68
2022/08/27 14:56:43;;;;;;;9.98;3.05;;;;;;;34.46;24.25;99658.72;5536094;32;34203;-69
2022/08/27 14:59:46;;;;;;;14.60;2.50;;;;;;;34.33;24.37;99659.03;5549454;32;34236;-69